Time;durP1;ratioP1;P1;durP2;ratioP2;P2;SDS_P1;SDS_P2;PMS_P1;PMS_P2;Temp;Humidity;BMP_temperature;BMP_pressure;BME280_temperature;BME280_humidity;BME280_pressure;Samples;Min_cycle;Max_cycle;Signal;HPM_P1;HPM_P2
2023/09/13 00:02:04;;;;;;;;;;;16.70;99.90;;;;;;4972611;28;19979;-74
2023/09/13 00:04:30;;;;;;;;;;;16.70;99.90;;;;;;4970695;28;19963;-75
2023/09/13 00:06:55;;;;;;;;;;;16.70;99.90;;;;;;4972297;28;20649;-74
2023/09/13 00:09:21;;;;;;;;;;;16.80;99.90;;;;;;4970120;28;19942;-74
2023/09/13 00:11:47;;;;;;;;;;;16.70;99.90;;;;;;4972248;28;19960;-74
2023/09/13 00:14:12;;;;;;;;;;;16.80;99.90;;;;;;4974302;28;20038;-75
2023/09/13 00:16:39;;;;;;;;;;;16.80;99.90;;;;;;4969253;28;19928;-74
2023/09/13 00:19:04;;;;;;;;;;;16.70;99.90;;;;;;4971292;28;19985;-75
2023/09/13 00:21:31;;;;;;;;;;;16.70;99.90;;;;;;4971202;28;19931;-75
2023/09/13 00:23:56;;;;;;;;;;;16.60;99.90;;;;;;4973974;28;19998;-75
2023/09/13 00:26:22;;;;;;;;;;;16.50;99.90;;;;;;4963971;28;19933;-76
2023/09/13 00:28:48;;;;;;;;;;;16.50;99.90;;;;;;4967978;28;19983;-75
2023/09/13 00:31:13;;;;;;;;;;;16.40;99.90;;;;;;4952689;28;19929;-75
2023/09/13 00:33:39;;;;;;;;;;;16.30;99.90;;;;;;4956225;28;19962;-75
2023/09/13 00:36:04;;;;;;;;;;;16.30;99.90;;;;;;4968983;28;19949;-75
2023/09/13 00:38:30;;;;;;;;;;;16.30;99.90;;;;;;4968012;28;19933;-75
2023/09/13 00:40:55;;;;;;;;;;;16.20;99.90;;;;;;4967584;28;20386;-74
2023/09/13 00:43:21;;;;;;;;;;;16.20;99.90;;;;;;4967097;28;20558;-76
2023/09/13 00:45:47;;;;;;;;;;;16.20;99.90;;;;;;4962158;28;20242;-73
2023/09/13 00:48:13;;;;;;;;;;;16.20;99.90;;;;;;4968257;28;20109;-72
2023/09/13 00:50:39;;;;;;;;;;;16.30;99.90;;;;;;4963870;28;20040;-72
2023/09/13 00:53:04;;;;;;;;;;;16.30;99.90;;;;;;4963860;28;19973;-72
2023/09/13 00:55:31;;;;;;;;;;;16.30;99.90;;;;;;4968482;28;20536;-72
2023/09/13 00:57:57;;;;;;;;;;;16.30;99.90;;;;;;4967543;28;19929;-72
2023/09/13 01:00:24;;;;;;;;;;;16.30;99.90;;;;;;4965034;28;19988;-72
2023/09/13 01:02:50;;;;;;;;;;;16.30;99.90;;;;;;4951260;28;19931;-72
2023/09/13 01:05:16;;;;;;;;;;;16.30;99.90;;;;;;4962101;28;19931;-72
2023/09/13 01:07:42;;;;;;;;;;;16.30;99.90;;;;;;4962188;28;21117;-71
2023/09/13 01:10:08;;;;;;;;;;;16.20;99.90;;;;;;4969335;28;20458;-72
2023/09/13 01:12:34;;;;;;;;;;;16.10;99.90;;;;;;4963572;28;19994;-72
2023/09/13 01:15:00;;;;;;;;;;;16.00;99.90;;;;;;4965626;28;20053;-72
2023/09/13 01:17:34;;;;;;;;;;;16.00;99.90;;;;;;4966860;28;19929;-73
2023/09/13 01:20:07;;;;;;;;;;;15.90;99.90;;;;;;4969539;28;20099;-73
2023/09/13 01:22:33;;;;;;;;;;;15.90;99.90;;;;;;4969354;28;19951;-72
2023/09/13 01:25:05;;;;;;;;;;;16.00;99.90;;;;;;4962189;28;20362;-72
2023/09/13 01:27:49;;;;;;;;;;;16.00;99.90;;;;;;4971547;28;19934;-72
2023/09/13 01:30:16;;;;;;;;;;;16.10;99.90;;;;;;4965612;28;19930;-73
2023/09/13 01:32:48;;;;;;;;;;;16.10;99.90;;;;;;4949479;28;20031;-73
2023/09/13 01:35:13;;;;;;;;;;;16.10;99.90;;;;;;4970325;28;20013;-74
2023/09/13 01:37:39;;;;;;;;;;;16.20;99.90;;;;;;4964194;28;19924;-72
2023/09/13 01:40:06;;;;;;;;;;;16.10;99.90;;;;;;4961169;28;19996;-73
2023/09/13 01:42:33;;;;;;;;;;;16.10;99.90;;;;;;4969603;28;19925;-73
2023/09/13 01:44:59;;;;;;;;;;;16.10;99.90;;;;;;4962863;28;19940;-72
2023/09/13 01:47:25;;;;;;;;;;;16.00;99.90;;;;;;4965189;28;19983;-73
2023/09/13 01:49:51;;;;;;;;;;;15.90;99.90;;;;;;4970328;28;19931;-73
2023/09/13 01:52:17;;;;;;;;;;;15.80;99.90;;;;;;4956734;28;19956;-72
2023/09/13 01:54:42;;;;;;;;;;;15.80;99.90;;;;;;4965483;28;20870;-72
2023/09/13 01:57:08;;;;;;;;;;;15.70;99.90;;;;;;4965850;28;19978;-73
2023/09/13 01:59:34;;;;;;;;;;;15.80;99.90;;;;;;4966964;28;20260;-72
2023/09/13 02:01:59;;;;;;;;;;;15.80;99.90;;;;;;4969571;28;19959;-72
2023/09/13 02:04:29;;;;;;;;;;;15.80;99.90;;;;;;4972951;28;20341;-72
2023/09/13 02:06:54;;;;;;;;;;;15.80;99.90;;;;;;4972064;28;19937;-72
2023/09/13 02:09:20;;;;;;;;;;;15.80;99.90;;;;;;4974125;28;19957;-72
2023/09/13 02:11:45;;;;;;;;;;;15.70;99.90;;;;;;4967894;28;19972;-72
2023/09/13 02:14:11;;;;;;;;;;;15.60;99.90;;;;;;4970304;28;20897;-73
2023/09/13 02:16:36;;;;;;;;;;;15.50;99.90;;;;;;4967531;28;19926;-72
2023/09/13 02:19:04;;;;;;;;;;;15.50;99.90;;;;;;4972078;28;19934;-73
2023/09/13 02:21:30;;;;;;;;;;;15.50;99.90;;;;;;4971005;28;19930;-72
2023/09/13 02:23:55;;;;;;;;;;;15.50;99.90;;;;;;4966902;28;19940;-73
2023/09/13 02:26:21;;;;;;;;;;;15.40;99.90;;;;;;4971014;28;19923;-72
2023/09/13 02:28:47;;;;;;;;;;;15.40;99.90;;;;;;4974289;28;20433;-72
2023/09/13 02:31:13;;;;;;;;;;;15.40;99.90;;;;;;4970448;28;19929;-73
2023/09/13 02:33:38;;;;;;;;;;;15.40;99.90;;;;;;4968718;28;20011;-73
2023/09/13 02:36:04;;;;;;;;;;;15.40;99.90;;;;;;4970531;28;20025;-72
2023/09/13 02:38:29;;;;;;;;;;;15.50;99.90;;;;;;4971179;28;19933;-73
2023/09/13 02:40:55;;;;;;;;;;;15.40;99.90;;;;;;4968892;28;20035;-72
2023/09/13 02:43:20;;;;;;;;;;;15.40;99.90;;;;;;4969196;28;19930;-73
2023/09/13 02:45:46;;;;;;;;;;;15.40;99.90;;;;;;4966182;28;20023;-72
2023/09/13 02:48:12;;;;;;;;;;;15.30;99.90;;;;;;4966975;28;19925;-73
2023/09/13 02:50:41;;;;;;;;;;;15.30;99.90;;;;;;4970689;28;20368;-72
2023/09/13 02:53:06;;;;;;;;;;;15.30;99.90;;;;;;4969457;28;19948;-73
2023/09/13 02:55:32;;;;;;;;;;;15.30;99.90;;;;;;4969526;28;19968;-73
2023/09/13 02:57:57;;;;;;;;;;;15.30;99.90;;;;;;4965808;28;19933;-72
2023/09/13 03:00:23;;;;;;;;;;;15.30;99.90;;;;;;4967147;28;20041;-72
2023/09/13 03:02:49;;;;;;;;;;;15.30;99.90;;;;;;4967106;28;19994;-72
2023/09/13 03:05:15;;;;;;;;;;;15.30;99.90;;;;;;4974356;28;19927;-72
2023/09/13 03:07:41;;;;;;;;;;;15.30;99.90;;;;;;4971028;28;19925;-72
2023/09/13 03:10:06;;;;;;;;;;;15.30;99.90;;;;;;4972048;28;19940;-72
2023/09/13 03:12:33;;;;;;;;;;;15.30;99.90;;;;;;4972047;28;20197;-73
2023/09/13 03:14:59;;;;;;;;;;;15.10;99.90;;;;;;4974755;28;19947;-72
2023/09/13 03:17:24;;;;;;;;;;;15.00;99.90;;;;;;4973346;28;20384;-72
2023/09/13 03:19:50;;;;;;;;;;;14.80;99.90;;;;;;4973390;28;19987;-72
2023/09/13 03:22:15;;;;;;;;;;;14.80;99.90;;;;;;4973893;28;19926;-72
2023/09/13 03:24:41;;;;;;;;;;;14.80;99.90;;;;;;4974762;28;19935;-72
2023/09/13 03:27:07;;;;;;;;;;;14.80;99.90;;;;;;4975906;28;20842;-72
2023/09/13 03:29:33;;;;;;;;;;;14.80;99.90;;;;;;4974050;28;19934;-72
2023/09/13 03:31:58;;;;;;;;;;;14.90;99.90;;;;;;4971275;28;19954;-72
2023/09/13 03:34:24;;;;;;;;;;;14.90;99.90;;;;;;4971210;28;19979;-72
2023/09/13 03:36:49;;;;;;;;;;;14.90;99.90;;;;;;4976305;28;20468;-72
2023/09/13 03:39:15;;;;;;;;;;;14.80;99.90;;;;;;4970415;28;19932;-72
2023/09/13 03:41:40;;;;;;;;;;;14.70;99.90;;;;;;4975671;28;20292;-72
2023/09/13 03:44:06;;;;;;;;;;;14.70;99.90;;;;;;4970734;28;20432;-72
2023/09/13 03:46:31;;;;;;;;;;;14.70;99.90;;;;;;4968827;28;19982;-71
2023/09/13 03:48:57;;;;;;;;;;;14.70;99.90;;;;;;4971695;28;19960;-72
2023/09/13 03:51:23;;;;;;;;;;;14.70;99.90;;;;;;4975369;28;20407;-72
2023/09/13 03:53:48;;;;;;;;;;;14.80;99.90;;;;;;4960973;28;20396;-72
2023/09/13 03:56:14;;;;;;;;;;;14.70;99.90;;;;;;4971189;28;19947;-72
2023/09/13 03:58:39;;;;;;;;;;;14.70;99.90;;;;;;4967423;28;19980;-72
2023/09/13 04:01:06;;;;;;;;;;;14.70;99.90;;;;;;4971957;28;20046;-72
2023/09/13 04:03:35;;;;;;;;;;;14.60;99.90;;;;;;4967008;28;20623;-72
2023/09/13 04:06:00;;;;;;;;;;;14.70;99.90;;;;;;4971916;28;19984;-72
2023/09/13 04:08:27;;;;;;;;;;;14.60;99.90;;;;;;4972298;28;19984;-72
2023/09/13 04:10:53;;;;;;;;;;;14.60;99.90;;;;;;4970026;28;20390;-72
2023/09/13 04:13:18;;;;;;;;;;;14.50;99.90;;;;;;4971620;28;19955;-72
2023/09/13 04:15:47;;;;;;;;;;;14.40;99.90;;;;;;4973177;28;19934;-72
2023/09/13 04:18:13;;;;;;;;;;;14.40;99.90;;;;;;4968457;28;19939;-73
2023/09/13 04:20:39;;;;;;;;;;;14.40;99.90;;;;;;4975051;28;19984;-72
2023/09/13 04:23:04;;;;;;;;;;;14.40;99.90;;;;;;4973927;28;20321;-71
2023/09/13 04:25:30;;;;;;;;;;;14.50;99.90;;;;;;4971045;28;19960;-72
2023/09/13 04:27:55;;;;;;;;;;;14.60;99.90;;;;;;4974118;28;19936;-71
2023/09/13 04:30:21;;;;;;;;;;;14.50;99.90;;;;;;4964744;28;20019;-71
2023/09/13 04:32:49;;;;;;;;;;;14.40;99.90;;;;;;4969384;28;19959;-71
2023/09/13 04:35:15;;;;;;;;;;;14.30;99.90;;;;;;4968580;28;20045;-71
2023/09/13 04:37:42;;;;;;;;;;;14.40;99.90;;;;;;4970071;28;20360;-71
2023/09/13 04:40:07;;;;;;;;;;;14.40;99.90;;;;;;4974768;28;20403;-72
2023/09/13 04:42:36;;;;;;;;;;;14.50;99.90;;;;;;4976323;28;19940;-72
2023/09/13 04:45:03;;;;;;;;;;;14.50;99.90;;;;;;4956461;28;19944;-73
2023/09/13 04:47:28;;;;;;;;;;;14.50;99.90;;;;;;4970740;28;19993;-80
2023/09/13 04:49:54;;;;;;;;;;;14.50;99.90;;;;;;4973761;28;20522;-81
2023/09/13 04:52:19;;;;;;;;;;;14.50;99.90;;;;;;4970847;28;19963;-81
2023/09/13 04:54:45;;;;;;;;;;;14.50;99.90;;;;;;4977028;28;19981;-82
2023/09/13 04:57:10;;;;;;;;;;;14.50;99.90;;;;;;4971946;28;19968;-83
2023/09/13 04:59:43;;;;;;;;;;;14.50;99.90;;;;;;4971761;28;20054;-67
2023/09/13 05:02:10;;;;;;;;;;;14.60;99.90;;;;;;4965029;28;19949;-65
2023/09/13 05:04:36;;;;;;;;;;;14.60;99.90;;;;;;4967169;28;19943;-66
2023/09/13 05:07:02;;;;;;;;;;;14.70;99.90;;;;;;4960890;28;20267;-66
2023/09/13 05:09:27;;;;;;;;;;;14.80;99.90;;;;;;4963802;28;19972;-71
2023/09/13 05:11:53;;;;;;;;;;;14.90;99.90;;;;;;4967246;28;19953;-71
2023/09/13 05:14:18;;;;;;;;;;;15.00;99.90;;;;;;4954232;28;19929;-72
2023/09/13 05:16:44;;;;;;;;;;;15.20;99.90;;;;;;4962980;28;20398;-72
2023/09/13 05:19:09;;;;;;;;;;;15.30;99.90;;;;;;4965519;28;19928;-73
2023/09/13 05:21:35;;;;;;;;;;;15.50;99.90;;;;;;4969036;28;19932;-74
2023/09/13 05:24:00;;;;;;;;;;;15.60;99.90;;;;;;4965218;28;21702;-75
2023/09/13 05:26:26;;;;;;;;;;;15.60;99.90;;;;;;4966201;28;19938;-74
2023/09/13 05:28:51;;;;;;;;;;;15.70;99.90;;;;;;4965916;28;19935;-80
2023/09/13 05:31:17;;;;;;;;;;;15.70;99.90;;;;;;4967101;28;19933;-83
2023/09/13 05:33:43;;;;;;;;;;;15.80;99.90;;;;;;4957417;28;20665;-79
2023/09/13 05:36:15;;;;;;;;;;;15.90;99.90;;;;;;4966683;28;19930;-80
2023/09/13 05:38:41;;;;;;;;;;;16.10;99.90;;;;;;4971385;28;19931;-78
2023/09/13 05:41:10;;;;;;;;;;;16.30;99.90;;;;;;4970799;28;19982;-82
2023/09/13 05:43:37;;;;;;;;;;;16.40;99.90;;;;;;4972561;28;19952;-81
2023/09/13 05:46:02;;;;;;;;;;;16.50;99.90;;;;;;4972230;28;19924;-81
2023/09/13 05:48:28;;;;;;;;;;;16.70;99.90;;;;;;4954816;28;19972;-81
2023/09/13 05:50:53;;;;;;;;;;;16.90;99.90;;;;;;4973035;28;19963;-82
2023/09/13 05:53:19;;;;;;;;;;;17.10;99.90;;;;;;4973943;28;19964;-81
2023/09/13 05:55:45;;;;;;;;;;;17.30;99.90;;;;;;4968892;28;19976;-80
2023/09/13 05:58:11;;;;;;;;;;;17.50;99.90;;;;;;4976420;28;20592;-81
2023/09/13 06:00:36;;;;;;;;;;;17.70;99.90;;;;;;4972492;28;19994;-80
2023/09/13 06:03:02;;;;;;;;;;;17.90;99.90;;;;;;4976799;28;19978;-85
2023/09/13 06:05:28;;;;;;;;;;;18.00;99.90;;;;;;4978512;28;20496;-82
2023/09/13 06:07:53;;;;;;;;;;;18.10;99.90;;;;;;4975640;28;19936;-82
2023/09/13 06:10:19;;;;;;;;;;;18.30;99.90;;;;;;4975434;28;19927;-77
2023/09/13 06:12:45;;;;;;;;;;;18.40;99.90;;;;;;4975512;28;19918;-82
2023/09/13 06:15:12;;;;;;;;;;;18.60;99.90;;;;;;4975252;28;19935;-84
2023/09/13 06:17:37;;;;;;;;;;;18.80;99.90;;;;;;4973319;28;20027;-82
2023/09/13 06:20:06;;;;;;;;;;;19.00;99.90;;;;;;4974773;28;20082;-82
2023/09/13 06:22:34;;;;;;;;;;;19.20;99.90;;;;;;4974748;28;19993;-82
2023/09/13 06:24:59;;;;;;;;;;;19.30;99.90;;;;;;4976481;28;19914;-82
2023/09/13 06:27:25;;;;;;;;;;;19.40;99.90;;;;;;4977262;28;19990;-83
2023/09/13 06:29:50;;;;;;;;;;;19.40;99.90;;;;;;4978054;28;19922;-80
2023/09/13 06:32:16;;;;;;;;;;;19.50;99.90;;;;;;4982740;28;19965;-83
2023/09/13 06:34:42;;;;;;;;;;;19.70;99.90;;;;;;4974236;28;19958;-82
2023/09/13 06:37:07;;;;;;;;;;;19.90;99.90;;;;;;4981615;28;19928;-82
2023/09/13 06:39:34;;;;;;;;;;;20.10;99.90;;;;;;4981459;28;20014;-80
2023/09/13 06:42:00;;;;;;;;;;;20.30;99.90;;;;;;4982575;28;20343;-81
2023/09/13 06:44:26;;;;;;;;;;;20.40;99.90;;;;;;4973227;28;20476;-81
2023/09/13 06:46:52;;;;;;;;;;;20.50;99.90;;;;;;4979355;28;19932;-81
2023/09/13 06:49:17;;;;;;;;;;;20.70;99.90;;;;;;4985062;28;19924;-66
2023/09/13 06:51:43;;;;;;;;;;;20.80;99.90;;;;;;4981371;28;20015;-66
2023/09/13 06:54:09;;;;;;;;;;;20.90;99.90;;;;;;4975015;28;22285;-66
2023/09/13 06:56:34;;;;;;;;;;;21.10;99.90;;;;;;4979351;28;19970;-66
2023/09/13 06:59:00;;;;;;;;;;;21.20;99.90;;;;;;4961089;28;19960;-67
2023/09/13 07:01:26;;;;;;;;;;;21.40;99.90;;;;;;4980055;28;19952;-66
2023/09/13 07:03:51;;;;;;;;;;;21.50;99.90;;;;;;4976326;28;19931;-66
2023/09/13 07:06:17;;;;;;;;;;;21.70;99.90;;;;;;4979703;28;19951;-67
2023/09/13 07:08:42;;;;;;;;;;;21.90;99.90;;;;;;4975911;28;19930;-67
2023/09/13 07:11:08;;;;;;;;;;;22.00;99.90;;;;;;4978708;28;19932;-67
2023/09/13 07:13:33;;;;;;;;;;;22.20;99.90;;;;;;4971936;28;19966;-67
2023/09/13 07:15:59;;;;;;;;;;;22.30;99.90;;;;;;4976046;28;20021;-67
2023/09/13 07:18:25;;;;;;;;;;;22.40;99.90;;;;;;4973602;28;19955;-67
2023/09/13 07:20:50;;;;;;;;;;;22.60;99.90;;;;;;4977275;28;20669;-66
2023/09/13 07:23:16;;;;;;;;;;;22.70;99.90;;;;;;4977276;28;20008;-81
2023/09/13 07:25:41;;;;;;;;;;;22.80;99.90;;;;;;4975099;28;19918;-81
2023/09/13 07:28:07;;;;;;;;;;;23.00;99.90;;;;;;4976426;28;20375;-80
2023/09/13 07:30:32;;;;;;;;;;;23.10;99.90;;;;;;4972376;28;19980;-80
2023/09/13 07:32:58;;;;;;;;;;;23.30;99.90;;;;;;4976520;28;19954;-83
2023/09/13 07:35:24;;;;;;;;;;;23.40;99.90;;;;;;4977250;28;19939;-84
2023/09/13 07:37:49;;;;;;;;;;;23.50;99.90;;;;;;4981645;28;20432;-84
2023/09/13 07:40:15;;;;;;;;;;;23.70;99.90;;;;;;4979816;28;19925;-82
2023/09/13 07:42:40;;;;;;;;;;;23.80;99.90;;;;;;4975252;28;19940;-83
2023/09/13 07:45:06;;;;;;;;;;;23.70;99.90;;;;;;4978009;28;20483;-83
2023/09/13 07:47:32;;;;;;;;;;;23.70;99.90;;;;;;4972465;28;21439;-84
2023/09/13 07:49:58;;;;;;;;;;;23.80;99.90;;;;;;4981476;28;19922;-83
2023/09/13 07:52:24;;;;;;;;;;;23.90;99.90;;;;;;4960895;28;19957;-82
2023/09/13 07:54:50;;;;;;;;;;;23.80;99.90;;;;;;4972844;28;20026;-82
2023/09/13 07:57:16;;;;;;;;;;;23.90;99.90;;;;;;4978544;28;19939;-82
2023/09/13 07:59:41;;;;;;;;;;;24.00;99.90;;;;;;4962825;28;19927;-84
2023/09/13 08:02:07;;;;;;;;;;;24.10;99.90;;;;;;4970017;28;19936;-83
2023/09/13 08:04:33;;;;;;;;;;;24.10;99.90;;;;;;4978736;28;20552;-84
2023/09/13 08:06:59;;;;;;;;;;;24.20;99.90;;;;;;4972336;28;19936;-83
2023/09/13 08:09:25;;;;;;;;;;;24.10;99.90;;;;;;4954680;28;20384;-81
2023/09/13 08:11:52;;;;;;;;;;;24.20;99.90;;;;;;4976787;28;19956;-83
2023/09/13 08:14:18;;;;;;;;;;;24.40;99.90;;;;;;4974917;28;20726;-84
2023/09/13 08:16:43;;;;;;;;;;;24.60;99.90;;;;;;4957125;28;20366;-83
2023/09/13 08:19:09;;;;;;;;;;;24.70;99.90;;;;;;4978940;28;20052;-66
2023/09/13 08:21:34;;;;;;;;;;;24.90;99.90;;;;;;4971242;28;20134;-67
2023/09/13 08:24:01;;;;;;;;;;;24.90;99.90;;;;;;4972819;28;19937;-66
2023/09/13 08:26:26;;;;;;;;;;;25.10;99.90;;;;;;4972731;28;19934;-66
2023/09/13 08:28:52;;;;;;;;;;;25.20;99.90;;;;;;4977767;28;19928;-66
2023/09/13 08:31:17;;;;;;;;;;;25.30;99.90;;;;;;4962171;28;19920;-66
2023/09/13 08:33:43;;;;;;;;;;;25.10;99.90;;;;;;4957452;28;19958;-67
2023/09/13 08:36:09;;;;;;;;;;;25.20;99.90;;;;;;4976618;28;20003;-67
2023/09/13 08:38:34;;;;;;;;;;;25.30;99.90;;;;;;4974804;28;20035;-67
2023/09/13 08:41:01;;;;;;;;;;;25.50;99.90;;;;;;4971205;28;19976;-66
2023/09/13 08:43:27;;;;;;;;;;;25.50;99.90;;;;;;4978081;28;20585;-62
2023/09/13 08:45:53;;;;;;;;;;;25.60;99.90;;;;;;4973284;28;19929;-66
2023/09/13 08:48:19;;;;;;;;;;;25.60;99.90;;;;;;4967362;28;19939;-67
2023/09/13 08:50:46;;;;;;;;;;;25.70;99.90;;;;;;4970499;28;19997;-67
2023/09/13 08:53:13;;;;;;;;;;;25.70;99.90;;;;;;4966799;28;19956;-67
2023/09/13 08:55:39;;;;;;;;;;;25.70;99.90;;;;;;4961598;28;20002;-67
2023/09/13 08:58:05;;;;;;;;;;;25.70;99.90;;;;;;4961479;28;20413;-66
2023/09/13 09:00:33;;;;;;;;;;;25.60;99.90;;;;;;4972098;28;19965;-67
2023/09/13 09:03:03;;;;;;;;;;;25.80;99.90;;;;;;4966683;28;19937;-68
2023/09/13 09:05:30;;;;;;;;;;;26.00;99.90;;;;;;4959460;28;20524;-67
2023/09/13 09:07:56;;;;;;;;;;;26.10;99.90;;;;;;4951304;28;19966;-67
2023/09/13 09:10:22;;;;;;;;;;;26.20;99.90;;;;;;4973358;28;20451;-67
2023/09/13 09:12:50;;;;;;;;;;;26.30;99.90;;;;;;4968311;28;20751;-67
2023/09/13 09:15:17;;;;;;;;;;;26.40;99.90;;;;;;4970279;28;20084;-79
2023/09/13 09:17:44;;;;;;;;;;;26.40;99.90;;;;;;4963899;28;20362;-80
2023/09/13 09:20:10;;;;;;;;;;;26.40;99.90;;;;;;4952778;28;19952;-75
2023/09/13 09:22:37;;;;;;;;;;;26.50;99.90;;;;;;4946888;28;20004;-82
2023/09/13 09:25:02;;;;;;;;;;;26.60;99.90;;;;;;4972505;28;19944;-83
2023/09/13 09:27:28;;;;;;;;;;;26.80;99.90;;;;;;4968064;28;19929;-82
2023/09/13 09:30:00;;;;;;;;;;;27.00;99.90;;;;;;4976421;28;19942;-80
2023/09/13 09:32:30;;;;;;;;;;;27.10;99.90;;;;;;4973486;28;20554;-79
2023/09/13 09:34:57;;;;;;;;;;;27.20;99.90;;;;;;4972941;28;20064;-80
2023/09/13 09:37:33;;;;;;;;;;;27.30;99.90;;;;;;4960944;28;20414;-73
2023/09/13 09:39:59;;;;;;;;;;;27.40;99.90;;;;;;4970566;28;19932;-71
2023/09/13 09:42:25;;;;;;;;;;;27.50;99.90;;;;;;4975013;28;20341;-71
2023/09/13 09:44:55;;;;;;;;;;;27.50;99.90;;;;;;4975551;28;19951;-72
2023/09/13 09:47:20;;;;;;;;;;;27.60;99.90;;;;;;4969496;28;19951;-73
2023/09/13 09:49:47;;;;;;;;;;;27.60;99.90;;;;;;4974925;28;20663;-73
2023/09/13 09:52:13;;;;;;;;;;;27.70;99.90;;;;;;4960593;28;20067;-72
2023/09/13 09:54:39;;;;;;;;;;;27.70;99.90;;;;;;4967869;28;19962;-72
2023/09/13 09:57:04;;;;;;;;;;;27.70;99.90;;;;;;4972547;28;20034;-72
2023/09/13 09:59:30;;;;;;;;;;;27.70;99.90;;;;;;4956658;28;19996;-72
2023/09/13 10:01:57;;;;;;;;;;;27.70;99.90;;;;;;4970875;28;19962;-72
2023/09/13 10:04:22;;;;;;;;;;;27.80;99.90;;;;;;4962821;28;20025;-72
2023/09/13 10:06:55;;;;;;;;;;;27.90;99.90;;;;;;4968243;28;20017;-72
2023/09/13 10:09:21;;;;;;;;;;;28.00;99.30;;;;;;4966332;28;19928;-73
2023/09/13 10:11:46;;;;;;;;;;;28.10;99.10;;;;;;4961878;28;19951;-72
2023/09/13 10:14:24;;;;;;;;;;;28.10;98.50;;;;;;4970089;28;19975;-81
2023/09/13 10:16:49;;;;;;;;;;;28.10;98.70;;;;;;4969346;28;20027;-82
2023/09/13 10:19:15;;;;;;;;;;;28.20;97.90;;;;;;4968832;28;20403;-82
2023/09/13 10:21:41;;;;;;;;;;;28.20;98.30;;;;;;4973628;28;19936;-81
2023/09/13 10:24:07;;;;;;;;;;;28.40;99.50;;;;;;4976120;28;20435;-83
2023/09/13 10:26:33;;;;;;;;;;;28.60;98.50;;;;;;4977596;28;19945;-83
2023/09/13 10:29:03;;;;;;;;;;;28.70;96.30;;;;;;4971370;28;19922;-81
2023/09/13 10:31:31;;;;;;;;;;;28.80;95.40;;;;;;4970974;28;20025;-72
2023/09/13 10:34:00;;;;;;;;;;;28.70;96.00;;;;;;4972537;28;20001;-72
2023/09/13 10:36:37;;;;;;;;;;;28.70;96.40;;;;;;4970438;28;19959;-72
2023/09/13 10:39:13;;;;;;;;;;;28.80;96.10;;;;;;4967528;28;20058;-73
2023/09/13 10:41:46;;;;;;;;;;;28.80;95.70;;;;;;4973018;28;19972;-73
2023/09/13 10:44:13;;;;;;;;;;;28.80;94.00;;;;;;4974523;28;20027;-72
2023/09/13 10:46:39;;;;;;;;;;;28.80;95.50;;;;;;4969820;28;19942;-72
2023/09/13 10:49:05;;;;;;;;;;;28.90;94.00;;;;;;4967715;28;20347;-72
2023/09/13 10:51:31;;;;;;;;;;;28.90;93.30;;;;;;4965286;28;20071;-72
2023/09/13 10:54:00;;;;;;;;;;;29.00;94.40;;;;;;4968948;28;19961;-72
2023/09/13 10:56:27;;;;;;;;;;;29.10;94.00;;;;;;4965655;28;19929;-72
2023/09/13 10:58:53;;;;;;;;;;;29.10;92.00;;;;;;4970608;28;19933;-72
2023/09/13 11:01:19;;;;;;;;;;;29.20;92.40;;;;;;4961407;28;19962;-73
2023/09/13 11:03:45;;;;;;;;;;;29.20;93.30;;;;;;4960141;28;20031;-73
2023/09/13 11:06:11;;;;;;;;;;;29.40;93.60;;;;;;4968308;28;20028;-73
2023/09/13 11:08:36;;;;;;;;;;;29.50;91.90;;;;;;4968344;28;20064;-73
2023/09/13 11:11:08;;;;;;;;;;;29.60;91.50;;;;;;4968473;28;19924;-73
2023/09/13 11:13:34;;;;;;;;;;;29.60;92.20;;;;;;4968664;28;19961;-72
2023/09/13 11:16:03;;;;;;;;;;;29.70;91.60;;;;;;4968395;28;19939;-72
2023/09/13 11:18:29;;;;;;;;;;;29.80;88.70;;;;;;4969530;28;19930;-72
2023/09/13 11:20:56;;;;;;;;;;;29.90;90.00;;;;;;4967580;28;19930;-73
2023/09/13 11:23:22;;;;;;;;;;;29.90;89.60;;;;;;4966822;28;19962;-72
2023/09/13 11:25:55;;;;;;;;;;;29.80;89.20;;;;;;4963789;28;20398;-72
2023/09/13 11:28:27;;;;;;;;;;;29.90;90.20;;;;;;4973348;28;19924;-72
2023/09/13 11:30:55;;;;;;;;;;;29.80;89.60;;;;;;4969387;28;19928;-72
2023/09/13 11:33:22;;;;;;;;;;;29.90;90.10;;;;;;4974498;28;19961;-73
2023/09/13 11:35:49;;;;;;;;;;;30.00;88.00;;;;;;4967896;28;19935;-73
2023/09/13 11:38:16;;;;;;;;;;;30.10;86.50;;;;;;4972015;28;19924;-73
2023/09/13 11:40:46;;;;;;;;;;;30.10;87.00;;;;;;4969075;28;20414;-73
2023/09/13 11:43:12;;;;;;;;;;;30.10;87.60;;;;;;4970820;28;19935;-73
2023/09/13 11:45:39;;;;;;;;;;;30.00;88.20;;;;;;4974861;28;19931;-73
2023/09/13 11:48:06;;;;;;;;;;;30.10;89.00;;;;;;4977579;28;19952;-73
2023/09/13 11:50:44;;;;;;;;;;;30.20;86.20;;;;;;4975416;28;20385;-73
2023/09/13 11:53:13;;;;;;;;;;;30.20;85.10;;;;;;4965612;28;19955;-72
2023/09/13 11:55:42;;;;;;;;;;;30.20;89.50;;;;;;4961222;28;19948;-73
2023/09/13 11:58:12;;;;;;;;;;;30.30;84.50;;;;;;4959251;28;19934;-73
2023/09/13 12:00:41;;;;;;;;;;;30.30;83.80;;;;;;4973015;28;20010;-72
2023/09/13 12:03:07;;;;;;;;;;;30.40;81.90;;;;;;4968933;28;20397;-72
2023/09/13 12:05:32;;;;;;;;;;;30.40;82.60;;;;;;4971147;28;19993;-72
2023/09/13 12:07:58;;;;;;;;;;;30.40;84.00;;;;;;4955477;28;19935;-72
2023/09/13 12:10:31;;;;;;;;;;;30.50;81.00;;;;;;4945994;28;20121;-72
2023/09/13 12:12:57;;;;;;;;;;;30.50;82.70;;;;;;4969158;28;19965;-72
2023/09/13 12:15:25;;;;;;;;;;;30.50;82.60;;;;;;4970688;28;20948;-72
2023/09/13 12:17:50;;;;;;;;;;;30.60;83.00;;;;;;4969786;28;19932;-72
2023/09/13 12:20:16;;;;;;;;;;;30.50;80.90;;;;;;4977456;28;19976;-72
2023/09/13 12:22:41;;;;;;;;;;;30.40;80.30;;;;;;4970596;28;19936;-73
2023/09/13 12:25:10;;;;;;;;;;;30.30;81.20;;;;;;4971149;28;20517;-73
2023/09/13 12:27:36;;;;;;;;;;;30.20;81.60;;;;;;4965672;28;20566;-73
2023/09/13 12:30:05;;;;;;;;;;;30.10;80.90;;;;;;4974550;28;19932;-72
2023/09/13 12:32:31;;;;;;;;;;;30.20;82.60;;;;;;4967593;28;20187;-72
2023/09/13 12:34:57;;;;;;;;;;;30.50;82.50;;;;;;4974955;28;20491;-72
2023/09/13 12:37:22;;;;;;;;;;;30.60;79.50;;;;;;4954354;28;20030;-73
2023/09/13 12:39:48;;;;;;;;;;;30.50;78.60;;;;;;4968316;28;19931;-73
2023/09/13 12:42:14;;;;;;;;;;;30.40;77.70;;;;;;4950996;28;19943;-72
2023/09/13 12:44:41;;;;;;;;;;;30.30;76.90;;;;;;4965098;28;19934;-73
2023/09/13 12:47:07;;;;;;;;;;;30.20;77.00;;;;;;4974472;28;19928;-73
2023/09/13 12:49:36;;;;;;;;;;;30.40;76.40;;;;;;4973044;28;19987;-73
2023/09/13 12:52:02;;;;;;;;;;;30.60;75.30;;;;;;4969168;28;20017;-73
2023/09/13 12:54:27;;;;;;;;;;;30.60;75.00;;;;;;4966993;28;20395;-73
2023/09/13 12:56:58;;;;;;;;;;;30.70;76.00;;;;;;4947408;28;20462;-73
2023/09/13 12:59:24;;;;;;;;;;;30.80;75.30;;;;;;4962334;28;19930;-83
2023/09/13 13:01:54;;;;;;;;;;;30.90;73.00;;;;;;4957164;28;19974;-82
2023/09/13 13:04:19;;;;;;;;;;;31.00;72.70;;;;;;4959551;28;20422;-82
2023/09/13 13:07:03;;;;;;;;;;;30.90;71.30;;;;;;4963010;28;19981;-82
2023/09/13 13:09:29;;;;;;;;;;;30.70;72.00;;;;;;4972256;28;20329;-81
2023/09/13 13:11:55;;;;;;;;;;;30.60;72.70;;;;;;4957159;28;20169;-80
2023/09/13 13:14:23;;;;;;;;;;;30.50;74.50;;;;;;4976146;28;19940;-82
2023/09/13 13:16:56;;;;;;;;;;;30.60;72.00;;;;;;4959241;28;20603;-82
2023/09/13 13:19:30;;;;;;;;;;;30.70;73.60;;;;;;4971302;28;19929;-81
2023/09/13 13:21:56;;;;;;;;;;;30.60;73.60;;;;;;4973522;28;19937;-81
2023/09/13 13:24:22;;;;;;;;;;;30.40;73.60;;;;;;4964748;28;19929;-83
2023/09/13 13:26:47;;;;;;;;;;;30.30;74.30;;;;;;4936055;28;19934;-80
2023/09/13 13:29:13;;;;;;;;;;;30.30;74.80;;;;;;4973791;28;19928;-79
2023/09/13 13:31:38;;;;;;;;;;;30.30;72.40;;;;;;4972070;28;20453;-80
2023/09/13 13:34:04;;;;;;;;;;;30.30;72.10;;;;;;4961602;28;19942;-76
2023/09/13 13:36:30;;;;;;;;;;;30.30;72.80;;;;;;4971582;28;20850;-75
2023/09/13 13:38:56;;;;;;;;;;;30.30;73.90;;;;;;4966960;28;20639;-75
2023/09/13 13:41:22;;;;;;;;;;;30.30;74.90;;;;;;4968744;28;19930;-72
2023/09/13 13:43:48;;;;;;;;;;;30.20;75.60;;;;;;4967837;28;19932;-73
2023/09/13 13:46:15;;;;;;;;;;;30.20;74.60;;;;;;4966057;28;19939;-74
2023/09/13 13:48:43;;;;;;;;;;;30.20;74.90;;;;;;4966288;28;19935;-73
2023/09/13 13:51:08;;;;;;;;;;;30.20;75.20;;;;;;4969492;28;20440;-73
2023/09/13 13:53:34;;;;;;;;;;;30.20;75.50;;;;;;4967528;28;19965;-73
2023/09/13 13:56:00;;;;;;;;;;;30.20;75.70;;;;;;4968128;28;19934;-76
2023/09/13 13:58:26;;;;;;;;;;;30.30;75.50;;;;;;4962912;28;20444;-79
2023/09/13 14:00:52;;;;;;;;;;;30.30;75.40;;;;;;4962421;28;20829;-76
2023/09/13 14:03:18;;;;;;;;;;;30.30;76.40;;;;;;4968623;28;19941;-77
2023/09/13 14:05:44;;;;;;;;;;;30.30;75.50;;;;;;4970820;28;19933;-76
2023/09/13 14:08:11;;;;;;;;;;;30.30;75.70;;;;;;4970313;28;19966;-78
2023/09/13 14:10:40;;;;;;;;;;;30.40;75.80;;;;;;4963385;28;19942;-78
2023/09/13 14:13:06;;;;;;;;;;;30.40;75.40;;;;;;4972031;28;19980;-79